Antequera, Spain
Current Conditions -  °F | °C
As of 11:30 PM on Thursday 23 Oct 2014 (Local Time) from LEMG Reporting Station
Clear Clear  
Wind Chill: 61°   Ceiling: Unl
Heat Index: 61°   Visibility: 6mi
Dew Point: 59°   Wind: 2mph
Humidity: 94%   Direction: 280°W
Pressure: 30.09"   Gusts: NA
Location:  37.02°N, 4.56°W
Report Text: LEMG 232130Z 28002KT CAVOK 16/15 Q1019 NOSIG
Loading
Personal Weather Stations






























Interactive Weather Map
Tropical Storm Tracking
New forecast layout! Learn more

10-Day Weather Forecast

Advertisements
Track Severe Weather on mobile